Terminal Aerodrome Forecast
Issued by NWS Albany, NY

Home | Current Version | Previous Version | Text Only | Print | Product List | Glossary On
Versions: 1 2 3 4 5 6 7 8 9 10 11 12 13 14 15 16 17
000
FTUS41 KALY 252334
TAFPOU
TAF
KPOU 252334Z 2600/2624 VRB03KT 6SM BR VCSH OVC010
      TEMPO 2604/2608 2SM -SHRA BR BKN004
     FM260900 26008KT 6SM BR VCSH OVC015
     FM261200 25007KT P6SM SCT015 OVC025
     FM261500 27010G18KT P6SM SCT025 BKN050=

USA.gov is the U.S. government's official web portal to all federal, state and local government web resources and services.